Troutville, VA

12:14 AM EST on March 06, 2015 (GMT -0500)
Orchards | Change Station
CLOSE
Current Station
Personal Weather Station
Location: Roanoke, VA
Elevation: 1119 ft
Nearby Weather Stations

Elev 1119 ft 37.34 °N, 79.88 °W | Updated 7 minutes ago

Partly Cloudy
Partly Cloudy
21.2 °F
Feels Like 21 °F
N
2.7
Wind Variable Wind from NNE

Today
High -- | Low -- °F
--% Chance of Precip.
Yesterday
High -- | Low -- °F
Precip. -- in
6:44 AM 6:18 PM
Full, 100% visible
Pressure 30.44 in
Visibility 10.0 miles
Clouds Few 2900 ft
Windchill 21 °F
Dew Point 17 °F
Humidity 85%
Rainfall in
Snow Depth Not available.
UV 0 out of 12
Pollen .90 out of 12
Air Quality Not available.
Flu Activity Not available.
METAR KROA 060454Z 32006KT 10SM FEW029 M06/M12 A3040 RMK AO2 SLP308 T10611117 400831061 $

More Conditions Fewer Conditions

Pressure 30.44 in
Visibility 10.0 miles
Clouds Few 2900 ft
Windchill 21 °F
Dew Point 17 °F
Humidity 85%
Rainfall in
Snow Depth Not available.
UV 0 out of 12
Pollen .90 out of 12
Air Quality Not available.
Flu Activity Not available.
METAR KROA 060454Z 32006KT 10SM FEW029 M06/M12 A3040 RMK AO2 SLP308 T10611117 400831061 $

More Conditions Fewer Conditions

10-Day Weather Forecast

Almanac

Astronomy

Mar. 06, 2015 Rise Set
Actual Time
Civil Twilight
Nautical Twilight
Astronomical Twilight
Moon
Length of Visible Light
Length of Day
Tomorrow will be .
, % of the Moon is Illuminated

Today's Extremes

State Highs State Lows

Community

WunderPhotos

Upload Photos

1,803,194 photos uploaded!

WunderBlogs® & News

Nearby

Air Quality

  Air Quality AQ Index Pollutant
Not available.

Snow Depth

Station Depth Elevation

Earthquake Activity

City Distance Mag. Time & Date
Minimum magnitude displayed is 2.5.

Coastal Water Temperatures

Place Temperature

Nearby Weather Stations

Special Statement
Statement as of 7:23 PM EST on March 05, 2015

... Slick roads due to areas of ice overnight...

As most precipitation has ended... temperatures have quickly
dropped below freezing this evening. This will allow areas of
residual slush and water to refreeze into ice overnight making for
slippery conditions on roads and sidewalks through early Friday
morning. Anyone planning to venture out should be alert for areas
of ice especially near bridges and overpasses as well as along
secondary roads.